Time;durP1;ratioP1;P1;durP2;ratioP2;P2;SDS_P1;SDS_P2;PMS_P1;PMS_P2;Temp;Humidity;BMP_temperature;BMP_pressure;BME280_temperature;BME280_humidity;BME280_pressure;Samples;Min_cycle;Max_cycle;Signal;HPM_P1;HPM_P2
2022/07/17 00:02:17;;;;;;;9.07;2.33;;;15.40;99.90;;;;;;4926326;29;20431;-65
2022/07/17 00:04:42;;;;;;;7.22;2.35;;;15.30;99.90;;;;;;4909929;29;20399;-65
2022/07/17 00:07:08;;;;;;;7.47;2.23;;;15.30;99.90;;;;;;4925992;29;20702;-65
2022/07/17 00:09:33;;;;;;;8.37;2.13;;;15.30;99.90;;;;;;4908814;29;20483;-65
2022/07/17 00:11:59;;;;;;;8.15;2.17;;;15.30;99.90;;;;;;4907884;29;20787;-65
2022/07/17 00:14:24;;;;;;;7.90;2.47;;;15.20;99.90;;;;;;4925716;29;20684;-65
2022/07/17 00:16:51;;;;;;;6.65;2.10;;;15.10;99.90;;;;;;4909231;29;20823;-65
2022/07/17 00:19:17;;;;;;;6.32;2.15;;;15.20;99.90;;;;;;4909701;29;20846;-65
2022/07/17 00:21:43;;;;;;;9.53;2.60;;;15.10;99.90;;;;;;4910407;29;20400;-65
2022/07/17 00:24:08;;;;;;;5.37;2.13;;;15.10;99.90;;;;;;4912157;29;20404;-65
2022/07/17 00:26:34;;;;;;;8.20;2.37;;;15.10;99.90;;;;;;4912863;29;20391;-65
2022/07/17 00:29:01;;;;;;;9.65;2.30;;;15.10;99.90;;;;;;4912609;29;20403;-65
2022/07/17 00:31:26;;;;;;;7.05;2.10;;;15.10;99.90;;;;;;4911782;29;20399;-65
2022/07/17 00:33:52;;;;;;;10.65;2.67;;;15.10;99.90;;;;;;4913686;29;20407;-65
2022/07/17 00:36:18;;;;;;;6.60;2.40;;;15.10;99.90;;;;;;4912221;29;20528;-65
2022/07/17 00:38:46;;;;;;;6.63;2.10;;;15.10;99.90;;;;;;4913581;29;20442;-65
2022/07/17 00:41:14;;;;;;;8.30;2.80;;;15.00;99.90;;;;;;4913427;29;20815;-65
2022/07/17 00:43:39;;;;;;;10.13;2.50;;;15.00;99.90;;;;;;4913137;29;21267;-65
2022/07/17 00:46:05;;;;;;;7.77;2.23;;;15.00;99.90;;;;;;4914283;29;20410;-65
2022/07/17 00:48:32;;;;;;;7.38;2.50;;;14.90;99.90;;;;;;4915986;29;20421;-65
2022/07/17 00:50:57;;;;;;;7.10;2.10;;;14.80;99.90;;;;;;4935260;29;20508;-65
2022/07/17 00:53:23;;;;;;;7.10;2.33;;;14.90;99.90;;;;;;4917704;29;20407;-65
2022/07/17 00:55:49;;;;;;;9.95;2.42;;;14.80;99.90;;;;;;4917974;29;20447;-65
2022/07/17 00:58:25;;;;;;;5.70;2.10;;;14.80;99.90;;;;;;4917907;29;20442;-67
2022/07/17 01:00:52;;;;;;;7.93;2.53;;;14.80;99.90;;;;;;4935008;29;20391;-65
2022/07/17 01:03:20;;;;;;;7.18;2.25;;;14.80;99.90;;;;;;4932918;29;20506;-65
2022/07/17 01:05:46;;;;;;;5.75;2.00;;;14.80;99.90;;;;;;4917625;29;20748;-65
2022/07/17 01:08:12;;;;;;;9.50;2.30;;;14.80;99.90;;;;;;4918303;29;20808;-65
2022/07/17 01:10:38;;;;;;;10.13;2.35;;;14.80;99.90;;;;;;4919061;29;20399;-65
2022/07/17 01:13:04;;;;;;;9.05;2.20;;;14.70;99.90;;;;;;4919571;29;20459;-65
2022/07/17 01:15:32;;;;;;;6.30;1.83;;;14.70;99.90;;;;;;4918058;29;20419;-65
2022/07/17 01:17:59;;;;;;;7.32;2.33;;;14.70;99.90;;;;;;4916856;29;20470;-65
2022/07/17 01:20:24;;;;;;;12.77;2.63;;;14.70;99.90;;;;;;4918415;29;20463;-65
2022/07/17 01:22:51;;;;;;;6.90;2.13;;;14.70;99.90;;;;;;4919895;29;20392;-65
2022/07/17 01:25:22;;;;;;;6.15;1.90;;;14.70;99.90;;;;;;4919386;29;20402;-65
2022/07/17 01:27:47;;;;;;;7.13;2.40;;;14.70;99.90;;;;;;4936749;29;20399;-65
2022/07/17 01:30:13;;;;;;;7.55;1.98;;;14.60;99.90;;;;;;4918506;29;20685;-65
2022/07/17 01:32:40;;;;;;;6.67;1.80;;;14.60;99.90;;;;;;4934794;29;20733;-67
2022/07/17 01:35:08;;;;;;;7.10;1.92;;;14.70;99.90;;;;;;4920208;29;20826;-65
2022/07/17 01:37:34;;;;;;;5.43;1.90;;;14.70;99.90;;;;;;4918765;29;20680;-65
2022/07/17 01:39:59;;;;;;;7.97;2.28;;;14.70;99.90;;;;;;4919538;29;20475;-65
2022/07/17 01:42:26;;;;;;;7.17;2.37;;;14.70;99.90;;;;;;4917792;29;20665;-65
2022/07/17 01:44:53;;;;;;;6.80;2.30;;;14.60;99.90;;;;;;4918022;29;20755;-65
2022/07/17 01:47:19;;;;;;;6.15;1.77;;;14.60;99.90;;;;;;4918927;29;20411;-65
2022/07/17 01:49:46;;;;;;;6.15;2.20;;;14.70;99.90;;;;;;4934349;29;20489;-65
2022/07/17 01:52:12;;;;;;;7.55;2.42;;;14.70;99.90;;;;;;4934405;29;20392;-65
2022/07/17 01:54:39;;;;;;;7.10;2.10;;;14.70;99.90;;;;;;4918477;29;20404;-65
2022/07/17 01:57:04;;;;;;;7.20;1.88;;;14.70;99.90;;;;;;4921243;29;20423;-65
2022/07/17 01:59:30;;;;;;;7.35;2.53;;;14.70;99.90;;;;;;4920171;29;20895;-65
2022/07/17 02:01:56;;;;;;;7.10;2.00;;;14.80;99.90;;;;;;4919213;29;20396;-66
2022/07/17 02:04:21;;;;;;;8.75;2.42;;;14.80;99.90;;;;;;4918459;29;20705;-67
2022/07/17 02:06:47;;;;;;;7.28;2.33;;;14.80;99.90;;;;;;4919478;29;20399;-65
2022/07/17 02:09:12;;;;;;;5.80;2.10;;;14.80;99.90;;;;;;4935449;29;20430;-65
2022/07/17 02:11:38;;;;;;;7.83;2.07;;;14.80;99.90;;;;;;4917599;29;20663;-65
2022/07/17 02:14:04;;;;;;;4.70;1.85;;;14.80;99.90;;;;;;4917982;29;20683;-65
2022/07/17 02:16:29;;;;;;;6.97;2.00;;;14.80;99.90;;;;;;4917678;29;20518;-65
2022/07/17 02:18:55;;;;;;;6.80;2.23;;;14.80;99.90;;;;;;4917836;29;20820;-65
2022/07/17 02:21:20;;;;;;;10.27;2.50;;;14.70;99.90;;;;;;4934183;29;20486;-65
2022/07/17 02:23:46;;;;;;;6.47;2.00;;;14.60;99.90;;;;;;4934574;29;20417;-65
2022/07/17 02:26:12;;;;;;;6.33;2.40;;;14.60;99.90;;;;;;4917254;29;20461;-65
2022/07/17 02:28:37;;;;;;;6.57;2.08;;;14.50;99.90;;;;;;4914859;29;20811;-65
2022/07/17 02:31:03;;;;;;;7.93;2.13;;;14.50;99.90;;;;;;4916874;29;20402;-65
2022/07/17 02:33:28;;;;;;;6.67;2.40;;;14.60;99.90;;;;;;4916395;29;20415;-65
2022/07/17 02:35:54;;;;;;;6.65;2.15;;;14.50;99.90;;;;;;4916451;29;20431;-65
2022/07/17 02:38:19;;;;;;;8.27;2.30;;;14.50;99.90;;;;;;4933942;29;20396;-65
2022/07/17 02:40:45;;;;;;;8.50;2.30;;;14.50;99.90;;;;;;4918150;29;20732;-65
2022/07/17 02:43:10;;;;;;;8.77;2.10;;;14.50;99.90;;;;;;4935945;29;20392;-65
2022/07/17 02:45:36;;;;;;;6.13;2.10;;;14.50;99.90;;;;;;4918656;29;20479;-65
2022/07/17 02:48:02;;;;;;;4.43;1.73;;;14.50;99.90;;;;;;4919274;29;20743;-65
2022/07/17 02:50:27;;;;;;;9.07;2.38;;;14.60;99.90;;;;;;4919604;29;20833;-65
2022/07/17 02:52:53;;;;;;;7.33;1.90;;;14.50;99.90;;;;;;4919303;29;20391;-65
2022/07/17 02:55:19;;;;;;;6.70;2.30;;;14.50;99.90;;;;;;4921162;29;20678;-65
2022/07/17 02:57:47;;;;;;;5.53;2.00;;;14.50;99.90;;;;;;4921681;29;20458;-65
2022/07/17 03:00:15;;;;;;;5.72;1.98;;;14.50;99.90;;;;;;4938414;29;20466;-65
2022/07/17 03:02:45;;;;;;;8.18;2.08;;;14.50;99.90;;;;;;4921043;29;20407;-65
2022/07/17 03:05:12;;;;;;;7.07;2.13;;;14.50;99.90;;;;;;4918292;29;20737;-65
2022/07/17 03:07:38;;;;;;;7.28;1.98;;;14.50;99.90;;;;;;4918115;29;20486;-65
2022/07/17 03:10:04;;;;;;;7.78;2.22;;;14.50;99.90;;;;;;4915562;29;20490;-65
2022/07/17 03:12:30;;;;;;;8.80;2.20;;;14.50;99.90;;;;;;4932902;29;20395;-65
2022/07/17 03:14:55;;;;;;;6.53;1.87;;;14.50;99.90;;;;;;4916329;29;20408;-65
2022/07/17 03:17:21;;;;;;;5.63;2.10;;;14.50;99.90;;;;;;4914699;29;20435;-65
2022/07/17 03:19:46;;;;;;;5.97;1.90;;;14.50;99.90;;;;;;4914447;29;20430;-65
2022/07/17 03:22:12;;;;;;;8.80;2.17;;;14.50;99.90;;;;;;4913756;29;20430;-65
2022/07/17 03:24:37;;;;;;;7.82;1.75;;;14.50;99.90;;;;;;4913186;29;20876;-65
2022/07/17 03:27:03;;;;;;;4.40;1.57;;;14.50;99.90;;;;;;4914351;29;20400;-65
2022/07/17 03:29:28;;;;;;;6.20;2.03;;;14.50;99.90;;;;;;4914515;29;20439;-65
2022/07/17 03:31:54;;;;;;;7.87;1.97;;;14.50;99.90;;;;;;4915231;29;20427;-65
2022/07/17 03:34:20;;;;;;;4.03;1.80;;;14.40;99.90;;;;;;4916830;29;20400;-65
2022/07/17 03:36:46;;;;;;;8.23;2.43;;;14.40;99.90;;;;;;4932213;29;20450;-65
2022/07/17 03:39:12;;;;;;;5.77;1.80;;;14.50;99.90;;;;;;4931508;29;20400;-65
2022/07/17 03:41:37;;;;;;;5.03;1.57;;;14.60;99.90;;;;;;4914345;29;20471;-65
2022/07/17 03:44:09;;;;;;;5.78;1.90;;;14.60;99.90;;;;;;4919777;29;20413;-65
2022/07/17 03:46:35;;;;;;;5.85;1.70;;;14.60;99.90;;;;;;4932246;29;20762;-65
2022/07/17 03:49:01;;;;;;;5.47;1.70;;;14.60;99.90;;;;;;4933037;29;20894;-65
2022/07/17 03:51:26;;;;;;;6.13;2.03;;;14.60;99.90;;;;;;4914587;29;20395;-65
2022/07/17 03:53:52;;;;;;;4.93;1.75;;;14.60;99.90;;;;;;4913121;29;20399;-65
2022/07/17 03:56:18;;;;;;;6.15;2.00;;;14.60;99.90;;;;;;4915663;29;20435;-65
2022/07/17 03:58:45;;;;;;;5.90;1.75;;;14.60;99.90;;;;;;4915586;29;20396;-65
2022/07/17 04:01:10;;;;;;;7.10;2.10;;;14.60;99.90;;;;;;4914817;29;20406;-65
2022/07/17 04:03:36;;;;;;;9.20;2.00;;;14.60;99.90;;;;;;4914921;29;20399;-65
2022/07/17 04:06:02;;;;;;;4.35;1.67;;;14.60;99.90;;;;;;4912630;29;20680;-65
2022/07/17 04:08:27;;;;;;;6.10;2.00;;;14.60;99.90;;;;;;4911422;29;20698;-66
2022/07/17 04:10:53;;;;;;;6.60;2.08;;;14.60;99.90;;;;;;4927398;29;20403;-65
2022/07/17 04:13:19;;;;;;;8.63;2.07;;;14.60;99.90;;;;;;4912005;29;20400;-65
2022/07/17 04:15:52;;;;;;;7.65;2.28;;;14.60;99.90;;;;;;4929341;29;20486;-65
2022/07/17 04:18:22;;;;;;;8.30;1.93;;;14.60;99.90;;;;;;4913457;29;20502;-65
2022/07/17 04:20:49;;;;;;;6.15;1.75;;;14.60;99.90;;;;;;4913327;29;20510;-65
2022/07/17 04:23:15;;;;;;;7.05;1.80;;;14.70;99.90;;;;;;4914894;29;20604;-65
2022/07/17 04:25:43;;;;;;;6.43;1.90;;;14.60;99.90;;;;;;4912203;29;20923;-65
2022/07/17 04:28:10;;;;;;;4.00;1.70;;;14.70;99.90;;;;;;4913904;29;20478;-65
2022/07/17 04:30:36;;;;;;;8.88;2.10;;;14.60;99.90;;;;;;4917769;29;20675;-65
2022/07/17 04:33:01;;;;;;;6.10;2.17;;;14.60;99.90;;;;;;4919576;29;20850;-65
2022/07/17 04:35:27;;;;;;;4.83;1.90;;;14.60;99.90;;;;;;4918720;29;20473;-65
2022/07/17 04:37:53;;;;;;;8.80;2.03;;;14.60;99.90;;;;;;4917605;29;20433;-65
2022/07/17 04:40:19;;;;;;;6.13;2.20;;;14.70;99.90;;;;;;4917008;29;20443;-65
2022/07/17 04:42:45;;;;;;;6.53;1.92;;;14.70;99.90;;;;;;4934810;29;20430;-65
2022/07/17 04:45:11;;;;;;;5.72;1.70;;;14.70;99.90;;;;;;4918924;29;20391;-65
2022/07/17 04:47:36;;;;;;;4.30;1.50;;;14.70;99.90;;;;;;4934450;29;20441;-65
2022/07/17 04:50:02;;;;;;;8.82;2.20;;;14.80;99.90;;;;;;4933546;29;20430;-64
2022/07/17 04:52:28;;;;;;;5.70;2.10;;;14.60;99.90;;;;;;4917767;29;20874;-65
2022/07/17 04:54:53;;;;;;;7.93;2.10;;;14.60;99.90;;;;;;4918431;29;20482;-65
2022/07/17 04:57:19;;;;;;;5.00;1.80;;;14.60;99.90;;;;;;4918570;29;20721;-65
2022/07/17 04:59:44;;;;;;;5.88;1.75;;;14.70;99.90;;;;;;4934573;29;20396;-65
2022/07/17 05:02:10;;;;;;;6.30;2.00;;;14.70;99.90;;;;;;4917541;29;20572;-65
2022/07/17 05:04:36;;;;;;;7.37;2.17;;;14.80;99.90;;;;;;4919721;29;20506;-65
2022/07/17 05:07:01;;;;;;;6.40;2.17;;;14.80;99.90;;;;;;4918517;29;20704;-65
2022/07/17 05:09:27;;;;;;;6.60;2.30;;;14.80;99.90;;;;;;4919535;29;20442;-65
2022/07/17 05:11:53;;;;;;;5.50;1.50;;;14.90;99.90;;;;;;4920525;29;20403;-65
2022/07/17 05:14:18;;;;;;;4.87;1.70;;;14.90;99.90;;;;;;4919439;29;20692;-65
2022/07/17 05:16:44;;;;;;;7.15;1.95;;;14.90;99.90;;;;;;4917967;29;20482;-65
2022/07/17 05:19:09;;;;;;;4.67;1.77;;;14.90;99.90;;;;;;4919054;29;20670;-65
2022/07/17 05:21:35;;;;;;;6.13;1.90;;;15.00;99.90;;;;;;4919127;29;20403;-65
2022/07/17 05:24:01;;;;;;;4.85;1.63;;;15.00;99.90;;;;;;4933642;29;20634;-65
2022/07/17 05:26:26;;;;;;;7.18;2.00;;;14.90;99.90;;;;;;4934651;29;20681;-65
2022/07/17 05:28:52;;;;;;;5.63;1.87;;;15.00;99.90;;;;;;4933328;29;20804;-65
2022/07/17 05:31:18;;;;;;;6.83;1.90;;;15.00;99.90;;;;;;4917355;29;20430;-65
2022/07/17 05:33:44;;;;;;;5.97;2.08;;;15.00;99.90;;;;;;4915819;29;20411;-65
2022/07/17 05:36:09;;;;;;;4.50;1.60;;;15.00;99.90;;;;;;4915556;29;20500;-67
2022/07/17 05:38:35;;;;;;;5.10;1.80;;;15.00;99.90;;;;;;4914347;29;20392;-65
2022/07/17 05:41:01;;;;;;;5.17;1.53;;;15.00;99.90;;;;;;4916200;29;20405;-65
2022/07/17 05:43:26;;;;;;;5.47;1.58;;;15.00;99.90;;;;;;4933839;29;20383;-65
2022/07/17 05:45:58;;;;;;;6.63;2.00;;;15.00;99.90;;;;;;4916529;29;20470;-65
2022/07/17 05:48:25;;;;;;;5.22;2.00;;;15.00;99.90;;;;;;4933627;29;20744;-65
2022/07/17 05:54:28;;;;;;;4.93;1.83;;;15.10;99.90;;;;;;4939770;29;20406;-65
2022/07/17 05:56:56;;;;;;;6.13;2.13;;;15.10;99.90;;;;;;4916267;29;20961;-65
2022/07/17 05:59:22;;;;;;;7.15;1.83;;;15.10;99.90;;;;;;4916655;29;20399;-65
2022/07/17 06:01:47;;;;;;;3.35;1.45;;;15.10;99.90;;;;;;4914550;29;20391;-65
2022/07/17 06:04:13;;;;;;;4.17;1.73;;;15.20;99.90;;;;;;4914548;29;20430;-65
2022/07/17 06:06:38;;;;;;;5.90;2.33;;;15.30;99.90;;;;;;4914953;29;20764;-65
2022/07/17 06:09:04;;;;;;;3.40;1.42;;;15.10;99.90;;;;;;4917346;29;20500;-65
2022/07/17 06:11:29;;;;;;;2.27;1.50;;;15.20;99.90;;;;;;4917791;29;20475;-65
2022/07/17 06:13:55;;;;;;;7.87;2.23;;;15.30;99.90;;;;;;4934876;29;20482;-65
2022/07/17 06:16:20;;;;;;;7.60;2.30;;;15.40;99.90;;;;;;4917535;29;20411;-65
2022/07/17 06:18:46;;;;;;;7.73;1.97;;;15.40;99.90;;;;;;4915725;29;20435;-65
2022/07/17 06:21:11;;;;;;;8.13;2.00;;;15.40;99.90;;;;;;4915700;29;20708;-65
2022/07/17 06:23:37;;;;;;;8.30;1.90;;;15.40;99.90;;;;;;4932370;29;20780;-65
2022/07/17 06:26:03;;;;;;;4.05;1.50;;;15.40;99.90;;;;;;4912829;29;20400;-65
2022/07/17 06:28:28;;;;;;;4.57;1.45;;;15.50;99.90;;;;;;4930661;29;20400;-65
2022/07/17 06:30:54;;;;;;;5.40;1.83;;;15.50;99.90;;;;;;4929367;29;20413;-65
2022/07/17 06:33:19;;;;;;;7.53;2.00;;;15.50;99.90;;;;;;4913993;29;20824;-65
2022/07/17 06:35:45;;;;;;;3.30;1.70;;;15.50;99.90;;;;;;4928905;29;20423;-65
2022/07/17 06:38:10;;;;;;;4.60;1.80;;;15.60;99.90;;;;;;4913151;29;20503;-65
2022/07/17 06:40:36;;;;;;;4.35;1.70;;;15.60;99.90;;;;;;4910502;29;20625;-65
2022/07/17 06:43:03;;;;;;;6.93;1.98;;;15.70;99.90;;;;;;4894299;29;20822;-65
2022/07/17 06:45:29;;;;;;;6.55;1.98;;;15.70;99.90;;;;;;4890470;29;20423;-65
2022/07/17 06:47:54;;;;;;;3.33;1.60;;;15.70;99.90;;;;;;4908072;29;20401;-64
2022/07/17 06:50:21;;;;;;;6.67;1.90;;;15.70;99.90;;;;;;4908632;29;20401;-65
2022/07/17 06:52:46;;;;;;;6.68;2.00;;;15.70;99.90;;;;;;4890690;29;20389;-65
2022/07/17 06:55:12;;;;;;;5.55;1.70;;;15.70;99.90;;;;;;4891790;29;20464;-65
2022/07/17 06:57:37;;;;;;;6.95;1.73;;;15.70;99.90;;;;;;4906667;29;20460;-65
2022/07/17 07:00:04;;;;;;;4.17;1.40;;;15.80;99.90;;;;;;4890051;29;20409;-64
2022/07/17 07:02:29;;;;;;;5.80;1.58;;;15.80;99.90;;;;;;4893002;29;20647;-65
2022/07/17 07:04:55;;;;;;;5.97;1.50;;;15.90;99.90;;;;;;4892413;29;20398;-65
2022/07/17 07:07:20;;;;;;;6.43;1.70;;;16.00;99.90;;;;;;4893714;29;20465;-64
2022/07/17 07:09:46;;;;;;;5.35;1.50;;;16.00;99.90;;;;;;4911034;29;20393;-64
2022/07/17 07:12:11;;;;;;;5.87;2.03;;;16.00;99.90;;;;;;4894234;29;20496;-64
2022/07/17 07:14:37;;;;;;;5.57;1.90;;;15.90;99.90;;;;;;4894983;29;20412;-64
2022/07/17 07:17:02;;;;;;;5.23;1.80;;;16.00;99.90;;;;;;4893663;29;20421;-64
2022/07/17 07:19:28;;;;;;;3.15;1.42;;;16.10;99.90;;;;;;4894114;29;20478;-64
2022/07/17 07:21:54;;;;;;;5.80;1.85;;;16.10;99.90;;;;;;4894840;29;20397;-65
2022/07/17 07:24:19;;;;;;;7.13;1.70;;;16.30;99.90;;;;;;4895581;29;20695;-64
2022/07/17 07:26:45;;;;;;;4.95;1.67;;;16.20;99.90;;;;;;4894969;29;20412;-64
2022/07/17 07:29:10;;;;;;;4.18;1.63;;;16.20;99.90;;;;;;4911384;29;20413;-64
2022/07/17 07:31:36;;;;;;;4.23;1.50;;;16.10;99.90;;;;;;4893554;29;20409;-64
2022/07/17 07:34:02;;;;;;;6.25;1.77;;;16.20;99.90;;;;;;4907915;29;20543;-64
2022/07/17 07:36:28;;;;;;;5.82;1.70;;;16.10;99.90;;;;;;4892227;29;20424;-64
2022/07/17 07:38:53;;;;;;;4.53;1.53;;;16.10;99.90;;;;;;4890746;29;20400;-64
2022/07/17 07:41:19;;;;;;;8.30;1.87;;;16.20;99.90;;;;;;4905977;29;20393;-64
2022/07/17 07:43:44;;;;;;;4.75;1.58;;;16.20;99.90;;;;;;4907082;29;20453;-64
2022/07/17 07:46:10;;;;;;;4.17;1.33;;;16.40;99.90;;;;;;4889529;29;20539;-64
2022/07/17 07:48:35;;;;;;;6.60;1.40;;;16.60;99.90;;;;;;4887867;29;20998;-65
2022/07/17 07:51:01;;;;;;;5.17;1.60;;;16.80;99.90;;;;;;4889611;29;20824;-65
2022/07/17 07:53:27;;;;;;;5.03;1.47;;;16.80;99.90;;;;;;4889122;29;20400;-65
2022/07/17 07:55:53;;;;;;;3.65;1.60;;;16.90;99.90;;;;;;4888465;29;20852;-65
2022/07/17 07:58:19;;;;;;;6.07;1.90;;;16.90;99.90;;;;;;4903661;29;20803;-64
2022/07/17 08:00:45;;;;;;;4.55;1.60;;;16.90;99.90;;;;;;4905117;29;20897;-64
2022/07/17 08:03:11;;;;;;;6.45;1.67;;;16.80;99.90;;;;;;4905237;29;20393;-65
2022/07/17 08:05:37;;;;;;;5.27;2.03;;;16.80;99.90;;;;;;4889524;29;20416;-65
2022/07/17 08:08:03;;;;;;;6.73;1.60;;;16.90;99.90;;;;;;4890572;29;20416;-64
2022/07/17 08:10:29;;;;;;;6.45;1.98;;;16.90;99.90;;;;;;4907189;29;20658;-65
2022/07/17 08:12:55;;;;;;;5.28;1.50;;;16.90;99.90;;;;;;4890894;29;20437;-65
2022/07/17 08:15:21;;;;;;;5.30;2.03;;;17.10;99.90;;;;;;4889750;29;20640;-65
2022/07/17 08:17:50;;;;;;;5.75;2.00;;;17.10;99.90;;;;;;4893313;29;20420;-65
2022/07/17 08:20:16;;;;;;;4.93;1.52;;;17.10;99.90;;;;;;4891170;29;20409;-65
2022/07/17 08:22:43;;;;;;;6.97;1.83;;;17.20;99.90;;;;;;4891339;29;20433;-65
2022/07/17 08:25:09;;;;;;;5.35;1.60;;;17.20;99.90;;;;;;4890240;29;20461;-65
2022/07/17 08:27:36;;;;;;;6.10;1.60;;;17.10;99.90;;;;;;4889209;29;20619;-65
2022/07/17 08:30:07;;;;;;;6.85;1.98;;;17.00;99.90;;;;;;4890317;29;20749;-64
2022/07/17 08:32:33;;;;;;;7.00;1.80;;;17.00;99.90;;;;;;4908789;29;20405;-65
2022/07/17 08:34:59;;;;;;;8.30;1.90;;;17.10;99.90;;;;;;4891724;29;20443;-64
2022/07/17 08:37:25;;;;;;;3.78;1.67;;;17.20;99.90;;;;;;4889409;29;20910;-65
2022/07/17 08:39:51;;;;;;;7.07;1.83;;;17.10;99.90;;;;;;4906427;29;20393;-64
2022/07/17 08:42:17;;;;;;;2.50;1.20;;;17.10;99.90;;;;;;4890509;29;20392;-64
2022/07/17 08:44:43;;;;;;;4.50;1.58;;;17.20;99.90;;;;;;4887870;29;20884;-64
2022/07/17 08:47:11;;;;;;;6.47;1.48;;;17.10;99.90;;;;;;4887138;29;20417;-65
2022/07/17 08:49:48;;;;;;;6.22;1.73;;;17.20;99.90;;;;;;4903028;29;20409;-65
2022/07/17 08:52:14;;;;;;;3.53;1.27;;;17.30;99.90;;;;;;4888912;29;20400;-65
2022/07/17 08:54:41;;;;;;;3.38;1.30;;;17.40;99.90;;;;;;4903929;29;20805;-65
2022/07/17 08:57:07;;;;;;;5.03;1.70;;;17.50;99.90;;;;;;4888260;29;20663;-65
2022/07/17 08:59:32;;;;;;;8.38;1.90;;;17.70;99.90;;;;;;4889242;29;20924;-65
2022/07/17 09:01:59;;;;;;;2.90;1.20;;;17.70;99.90;;;;;;4890178;29;20461;-64
2022/07/17 09:04:25;;;;;;;6.03;1.80;;;17.70;99.90;;;;;;4892120;29;20623;-64
2022/07/17 09:07:04;;;;;;;4.80;1.50;;;17.80;99.90;;;;;;4892291;29;20921;-64
2022/07/17 09:09:31;;;;;;;6.07;1.45;;;17.70;99.90;;;;;;4889369;29;20800;-64
2022/07/17 09:12:02;;;;;;;5.10;1.70;;;17.80;99.90;;;;;;4889163;29;20556;-64
2022/07/17 09:14:39;;;;;;;6.88;1.73;;;17.80;99.90;;;;;;4890607;29;20397;-65
2022/07/17 09:17:06;;;;;;;6.13;1.92;;;17.70;99.90;;;;;;4894660;29;20761;-64
2022/07/17 09:19:34;;;;;;;6.28;1.88;;;17.60;99.90;;;;;;4894310;29;20421;-64
2022/07/17 09:22:03;;;;;;;8.30;1.30;;;17.70;99.90;;;;;;4894086;29;20777;-65
2022/07/17 09:24:49;;;;;;;5.55;1.70;;;17.80;99.90;;;;;;4908152;29;20427;-64
2022/07/17 09:27:23;;;;;;;6.20;1.70;;;17.90;99.90;;;;;;4893593;29;20389;-65
2022/07/17 09:29:56;;;;;;;5.53;1.90;;;18.10;99.90;;;;;;4911488;29;20464;-65
2022/07/17 09:32:25;;;;;;;5.68;1.42;;;18.10;99.90;;;;;;4913295;29;20970;-64
2022/07/17 09:34:53;;;;;;;4.90;1.52;;;18.00;99.90;;;;;;4915005;29;20401;-65
2022/07/17 09:37:22;;;;;;;8.15;1.80;;;17.80;99.90;;;;;;4914236;29;20420;-64
2022/07/17 09:39:49;;;;;;;5.90;1.52;;;17.70;99.90;;;;;;4897344;29;20401;-65
2022/07/17 09:42:31;;;;;;;4.50;1.52;;;17.70;99.90;;;;;;4896637;29;20441;-65
2022/07/17 09:45:02;;;;;;;4.82;1.45;;;17.90;99.90;;;;;;4896404;29;20432;-66
2022/07/17 09:47:30;;;;;;;5.30;1.70;;;18.00;99.90;;;;;;4896323;29;20448;-65
2022/07/17 09:49:57;;;;;;;4.25;1.20;;;18.10;99.90;;;;;;4912765;29;20433;-65
2022/07/17 09:52:25;;;;;;;2.70;1.20;;;18.20;99.90;;;;;;4911584;29;20393;-65
2022/07/17 09:54:53;;;;;;;4.07;1.50;;;18.40;99.90;;;;;;4913579;29;20432;-65
2022/07/17 09:57:22;;;;;;;4.25;1.45;;;18.50;99.90;;;;;;4897350;29;20413;-65
2022/07/17 09:59:49;;;;;;;4.10;1.40;;;18.60;99.90;;;;;;4897110;29;20456;-65
2022/07/17 10:02:15;;;;;;;3.53;1.35;;;18.60;99.90;;;;;;4905561;29;21037;-65
2022/07/17 10:04:41;;;;;;;3.40;1.27;;;18.60;99.90;;;;;;4890187;29;20416;-65
2022/07/17 10:07:08;;;;;;;6.43;1.90;;;18.50;99.90;;;;;;4896855;29;20658;-65
2022/07/17 10:09:34;;;;;;;3.50;1.30;;;18.50;99.90;;;;;;4896863;29;20449;-65
2022/07/17 10:12:01;;;;;;;6.35;1.42;;;18.50;99.90;;;;;;4895382;29;20397;-65
2022/07/17 10:14:28;;;;;;;4.30;1.55;;;18.50;99.90;;;;;;4909208;29;20738;-65
2022/07/17 10:17:07;;;;;;;4.55;1.40;;;18.60;99.90;;;;;;4897948;29;20420;-65
2022/07/17 10:19:32;;;;;;;3.75;1.20;;;18.70;99.90;;;;;;4894352;29;20624;-65
2022/07/17 10:22:05;;;;;;;4.13;1.30;;;18.90;99.90;;;;;;4896595;29;20402;-65
2022/07/17 10:24:31;;;;;;;2.47;1.13;;;19.00;99.90;;;;;;4914988;29;20397;-65
2022/07/17 10:26:58;;;;;;;4.68;1.42;;;19.00;99.90;;;;;;4898170;29;20690;-64
2022/07/17 10:29:36;;;;;;;3.60;1.08;;;19.10;99.90;;;;;;4897044;29;20401;-64
2022/07/17 10:32:21;;;;;;;6.97;1.48;;;19.20;99.90;;;;;;4896866;29;20405;-65
2022/07/17 10:34:52;;;;;;;2.47;1.17;;;19.20;99.90;;;;;;4894449;29;20416;-65
2022/07/17 10:37:35;;;;;;;4.10;1.33;;;19.20;99.90;;;;;;4912935;29;20412;-65
2022/07/17 10:40:28;;;;;;;3.80;1.40;;;19.20;99.90;;;;;;4912867;29;20402;-65
2022/07/17 10:43:00;;;;;;;2.88;1.20;;;19.20;99.90;;;;;;4896150;29;20989;-65
2022/07/17 10:45:27;;;;;;;3.03;1.00;;;19.20;99.90;;;;;;4912587;29;20484;-65
2022/07/17 10:48:00;;;;;;;3.08;1.13;;;19.30;99.90;;;;;;4911670;29;20499;-65
2022/07/17 10:50:35;;;;;;;6.05;1.40;;;19.30;99.90;;;;;;4895434;29;20405;-65
2022/07/17 10:53:23;;;;;;;4.15;1.35;;;19.50;99.90;;;;;;4897344;29;20464;-65
2022/07/17 10:55:57;;;;;;;3.45;1.33;;;19.50;99.90;;;;;;4895460;29;20921;-65
2022/07/17 10:58:34;;;;;;;3.25;1.17;;;19.40;99.90;;;;;;4913607;29;21009;-65
2022/07/17 11:01:07;;;;;;;3.97;1.30;;;19.50;99.90;;;;;;4893683;29;20408;-65
2022/07/17 11:03:42;;;;;;;4.23;1.43;;;19.50;99.90;;;;;;4894281;29;21024;-66
2022/07/17 11:06:20;;;;;;;3.40;1.17;;;19.40;99.90;;;;;;4895573;29;20891;-65
2022/07/17 11:08:51;;;;;;;2.28;1.20;;;19.50;99.90;;;;;;4895206;29;20404;-65
2022/07/17 11:11:22;;;;;;;5.80;1.60;;;19.50;99.90;;;;;;4895740;29;20405;-65
2022/07/17 11:13:49;;;;;;;6.32;1.58;;;19.50;99.90;;;;;;4911265;29;20480;-65
2022/07/17 11:16:29;;;;;;;4.38;1.42;;;19.50;99.90;;;;;;4894411;29;20440;-65
2022/07/17 11:18:56;;;;;;;2.30;1.03;;;19.40;99.90;;;;;;4896513;29;20762;-65
2022/07/17 11:21:24;;;;;;;4.57;1.30;;;19.50;99.90;;;;;;4893448;29;20442;-65
2022/07/17 11:23:55;;;;;;;4.63;1.80;;;19.50;99.90;;;;;;4893010;29;21030;-65
2022/07/17 11:26:21;;;;;;;5.03;1.27;;;19.60;99.90;;;;;;4908321;29;20712;-65
2022/07/17 11:28:48;;;;;;;3.90;1.60;;;19.60;99.90;;;;;;4907745;29;20822;-65
2022/07/17 11:31:17;;;;;;;3.72;1.27;;;19.60;99.90;;;;;;4891065;29;20400;-65
2022/07/17 11:33:55;;;;;;;6.07;1.60;;;19.60;99.90;;;;;;4908160;29;21061;-67
2022/07/17 11:36:27;;;;;;;3.23;1.27;;;19.60;99.90;;;;;;4909313;29;20444;-65
2022/07/17 11:38:54;;;;;;;4.53;1.60;;;19.60;99.90;;;;;;4910564;29;20693;-65
2022/07/17 11:41:20;;;;;;;4.85;1.20;;;19.80;99.90;;;;;;4894601;29;20412;-65
2022/07/17 11:43:47;;;;;;;4.13;1.38;;;20.00;99.90;;;;;;4911637;29;20397;-65
2022/07/17 11:46:16;;;;;;;2.55;1.10;;;20.00;99.90;;;;;;4901377;29;20706;-66
2022/07/17 11:48:49;;;;;;;2.67;1.08;;;20.30;99.90;;;;;;4880527;29;20611;-65
2022/07/17 11:51:16;;;;;;;2.50;1.10;;;20.50;99.90;;;;;;4878811;29;20424;-65
2022/07/17 11:53:42;;;;;;;2.83;1.23;;;20.50;99.90;;;;;;4903968;29;20408;-65
2022/07/17 11:56:09;;;;;;;3.30;1.30;;;20.70;99.90;;;;;;4910361;29;20417;-65
2022/07/17 11:58:43;;;;;;;2.60;1.15;;;20.60;99.90;;;;;;4894383;29;20404;-65
2022/07/17 12:01:08;;;;;;;2.70;1.10;;;20.60;99.90;;;;;;4893934;29;20695;-66
2022/07/17 12:03:35;;;;;;;3.13;1.13;;;20.60;99.90;;;;;;4894956;29;21169;-65
2022/07/17 12:06:01;;;;;;;2.77;1.23;;;20.90;99.90;;;;;;4910387;29;20428;-65
2022/07/17 12:08:26;;;;;;;3.30;1.30;;;21.00;99.90;;;;;;4893490;29;20397;-65
2022/07/17 12:11:08;;;;;;;3.00;1.13;;;21.10;99.90;;;;;;4895088;29;20443;-66
2022/07/17 12:13:46;;;;;;;2.57;1.30;;;21.00;99.90;;;;;;4910995;29;20892;-65
2022/07/17 12:16:31;;;;;;;4.30;1.50;;;21.20;99.90;;;;;;4894992;29;20417;-66
2022/07/17 12:19:04;;;;;;;3.97;1.40;;;21.50;99.90;;;;;;4896219;29;20402;-65
2022/07/17 12:21:55;;;;;;;2.50;1.40;;;21.80;99.90;;;;;;4911151;29;20496;-65
2022/07/17 12:24:28;;;;;;;2.53;1.25;;;21.50;99.90;;;;;;4892865;29;20404;-65
2022/07/17 12:26:56;;;;;;;4.72;1.58;;;21.70;99.90;;;;;;4907694;29;20662;-65
2022/07/17 12:29:22;;;;;;;2.47;1.00;;;22.20;99.90;;;;;;4889987;29;20525;-65
2022/07/17 12:31:48;;;;;;;3.73;1.03;;;22.10;99.90;;;;;;4891021;29;20468;-65
2022/07/17 12:34:14;;;;;;;3.30;1.33;;;22.20;99.90;;;;;;4906654;29;20409;-65
2022/07/17 12:36:39;;;;;;;2.73;1.30;;;22.20;99.90;;;;;;4889584;29;20475;-65
2022/07/17 12:39:05;;;;;;;4.07;1.50;;;22.40;99.90;;;;;;4907703;29;20389;-65
2022/07/17 12:41:31;;;;;;;2.43;1.03;;;22.80;99.90;;;;;;4891964;29;20389;-65
2022/07/17 12:43:56;;;;;;;3.88;1.08;;;23.10;99.90;;;;;;4890680;29;20479;-65
2022/07/17 12:46:22;;;;;;;2.88;1.20;;;22.80;99.90;;;;;;4890408;29;20901;-65
2022/07/17 12:48:48;;;;;;;2.30;0.90;;;22.60;99.90;;;;;;4891499;29;20413;-65
2022/07/17 12:51:14;;;;;;;2.97;1.40;;;22.50;99.90;;;;;;4894986;29;20707;-65